Time;durP1;ratioP1;P1;durP2;ratioP2;P2;SDS_P1;SDS_P2;PMS_P1;PMS_P2;Temp;Humidity;BMP_temperature;BMP_pressure;BME280_temperature;BME280_humidity;BME280_pressure;Samples;Min_cycle;Max_cycle;Signal;HPM_P1;HPM_P2
2021/04/29 00:00:25;;;;;;;3.90;3.50;;;;;;;9.24;100.00;95575.97;5013188;28;20192;-82
2021/04/29 00:02:52;;;;;;;4.97;3.10;;;;;;;9.30;100.00;95585.78;5012694;28;20227;-81
2021/04/29 00:05:22;;;;;;;4.30;3.53;;;;;;;9.41;100.00;95587.25;5012671;28;20334;-82
2021/04/29 00:07:49;;;;;;;5.60;3.90;;;;;;;9.46;100.00;95579.69;5012768;28;20189;-81
2021/04/29 00:10:19;;;;;;;6.37;4.50;;;;;;;9.50;100.00;95573.13;5012780;28;20290;-82
2021/04/29 00:12:46;;;;;;;7.57;3.73;;;;;;;9.24;100.00;95560.22;5012302;28;20609;-81
2021/04/29 00:15:15;;;;;;;4.27;3.57;;;;;;;9.34;100.00;95554.81;5012815;28;20250;-80
2021/04/29 00:17:42;;;;;;;4.17;3.43;;;;;;;9.31;100.00;95576.94;5012329;28;20693;-81
2021/04/29 00:20:10;;;;;;;3.93;3.10;;;;;;;9.35;100.00;95567.75;5012961;28;20196;-81
2021/04/29 00:22:38;;;;;;;5.57;3.57;;;;;;;9.17;100.00;95541.72;5012212;28;20273;-81
2021/04/29 00:25:06;;;;;;;4.30;3.40;;;;;;;9.15;100.00;95527.97;5012301;28;20214;-81
2021/04/29 00:27:33;;;;;;;5.37;3.43;;;;;;;9.18;100.00;95535.53;5012306;28;20230;-81
2021/04/29 00:30:00;;;;;;;10.03;5.73;;;;;;;9.23;100.00;95530.56;5012526;28;20238;-81
2021/04/29 00:32:27;;;;;;;5.63;3.67;;;;;;;9.36;100.00;95553.66;5012205;28;20203;-81
2021/04/29 00:34:54;;;;;;;5.00;3.50;;;;;;;9.22;100.00;95547.31;5012202;28;20239;-81
2021/04/29 00:37:21;;;;;;;4.70;3.50;;;;;;;9.10;100.00;95572.22;5012142;28;20290;-81
2021/04/29 00:39:48;;;;;;;4.10;3.33;;;;;;;9.00;100.00;95566.34;5012348;28;20269;-82
2021/04/29 00:42:15;;;;;;;4.13;3.37;;;;;;;9.07;100.00;95564.69;5012174;28;20242;-81
2021/04/29 00:44:42;;;;;;;4.73;3.13;;;;;;;9.17;100.00;95581.06;5011836;28;20205;-82
2021/04/29 00:47:09;;;;;;;4.10;3.13;;;;;;;9.08;100.00;95576.81;5011990;28;20724;-81
2021/04/29 00:49:36;;;;;;;5.50;3.13;;;;;;;9.03;100.00;95571.25;5012539;28;20270;-82
2021/04/29 00:52:04;;;;;;;5.20;3.97;;;;;;;8.99;100.00;95552.41;5011906;28;20199;-81
2021/04/29 00:54:30;;;;;;;3.93;2.90;;;;;;;9.08;100.00;95529.63;5012040;28;20285;-81
2021/04/29 00:56:58;;;;;;;5.93;3.87;;;;;;;9.07;100.00;95538.47;5011972;28;20678;-82
2021/04/29 00:59:26;;;;;;;5.23;3.37;;;;;;;8.97;100.00;95528.19;5012447;28;20694;-81
2021/04/29 01:01:58;;;;;;;3.53;3.23;;;;;;;8.76;100.00;95507.75;5012110;28;20200;-81
2021/04/29 01:04:32;;;;;;;3.50;3.20;;;;;;;8.77;100.00;95470.06;5012100;28;20249;-81
2021/04/29 01:07:03;;;;;;;3.73;3.20;;;;;;;8.96;100.00;95481.97;5011936;28;20190;-81
2021/04/29 01:09:37;;;;;;;5.37;3.80;;;;;;;8.80;100.00;95482.03;5012524;28;20631;-82
2021/04/29 01:12:10;;;;;;;4.13;3.73;;;;;;;8.92;100.00;95479.88;5012243;28;20186;-81
2021/04/29 01:14:39;;;;;;;3.67;3.37;;;;;;;8.78;100.00;95470.88;5012070;28;20643;-82
2021/04/29 01:17:08;;;;;;;4.83;3.70;;;;;;;8.95;100.00;95487.41;5011776;28;20329;-82
2021/04/29 01:19:42;;;;;;;8.13;4.70;;;;;;;9.03;100.00;95484.75;5011947;28;20231;-81
2021/04/29 01:22:11;;;;;;;7.17;5.67;;;;;;;8.91;100.00;95480.88;5011378;28;20211;-81
2021/04/29 01:24:48;;;;;;;5.83;5.20;;;;;;;8.64;100.00;95432.28;5011864;28;20282;-81
2021/04/29 01:27:17;;;;;;;5.33;4.10;;;;;;;8.72;100.00;95403.44;5011697;28;20192;-81
2021/04/29 01:29:45;;;;;;;3.87;3.53;;;;;;;8.39;100.00;95392.22;5012124;28;20238;-81
2021/04/29 01:32:12;;;;;;;5.73;3.80;;;;;;;8.42;100.00;95318.59;5011427;28;20260;-81
2021/04/29 01:34:39;;;;;;;5.83;3.90;;;;;;;8.32;100.00;95263.75;5011744;28;20203;-81
2021/04/29 01:37:08;;;;;;;5.30;4.00;;;;;;;8.31;100.00;95215.81;5011932;28;20199;-81
2021/04/29 01:39:35;;;;;;;4.77;4.33;;;;;;;8.50;100.00;95204.13;5011713;28;20689;-82
2021/04/29 01:42:03;;;;;;;5.60;4.33;;;;;;;8.59;100.00;95238.97;5011655;28;20262;-82
2021/04/29 01:44:31;;;;;;;9.27;3.97;;;;;;;8.60;100.00;95258.13;5011435;28;20287;-82
2021/04/29 01:47:01;;;;;;;3.97;3.67;;;;;;;8.53;100.00;95260.59;5010453;28;20207;-81
2021/04/29 01:49:28;;;;;;;3.63;3.30;;;;;;;8.56;100.00;95260.25;5031250;28;20206;-82
2021/04/29 01:51:57;;;;;;;6.03;4.40;;;;;;;8.49;100.00;95294.16;5030972;28;20199;-82
2021/04/29 01:54:24;;;;;;;4.77;3.10;;;;;;;8.54;100.00;95281.38;5031291;28;20257;-82
2021/04/29 01:56:51;;;;;;;4.50;3.73;;;;;;;8.44;100.00;95274.69;5031807;28;20293;-80
2021/04/29 01:59:20;;;;;;;4.80;3.40;;;;;;;8.40;100.00;95221.03;5035150;28;20644;-81
2021/04/29 02:01:48;;;;;;;4.40;3.40;;;;;;;8.29;100.00;95230.88;5034410;28;20203;-81
2021/04/29 02:04:14;;;;;;;5.07;4.27;;;;;;;8.31;100.00;95194.03;5034601;28;20202;-82
2021/04/29 02:06:43;;;;;;;3.90;3.60;;;;;;;8.42;100.00;95192.91;5034519;28;20242;-81
2021/04/29 02:09:10;;;;;;;5.03;3.63;;;;;;;8.24;100.00;95204.41;5034740;28;20221;-81
2021/04/29 02:11:41;;;;;;;4.13;3.73;;;;;;;8.27;100.00;95200.59;5034721;28;20275;-81
2021/04/29 02:14:10;;;;;;;4.33;3.73;;;;;;;8.06;100.00;95181.06;5034291;28;20179;-81
2021/04/29 02:16:41;;;;;;;6.30;3.80;;;;;;;8.30;100.00;95184.56;5034242;28;20238;-81
2021/04/29 02:19:10;;;;;;;5.47;3.47;;;;;;;8.22;100.00;95192.47;5034515;28;20670;-82
2021/04/29 02:21:41;;;;;;;4.67;3.60;;;;;;;8.07;100.00;95200.19;5034410;28;20221;-81
2021/04/29 02:24:10;;;;;;;4.63;3.67;;;;;;;7.93;100.00;95172.97;5034310;28;20294;-81
2021/04/29 02:26:37;;;;;;;4.90;4.20;;;;;;;7.79;100.00;95145.69;5034075;28;20582;-82
2021/04/29 02:29:06;;;;;;;4.97;3.80;;;;;;;7.82;100.00;95079.94;5034197;28;20202;-82
2021/04/29 02:31:35;;;;;;;5.63;4.30;;;;;;;7.82;100.00;95055.59;5034226;28;20199;-81
2021/04/29 02:34:04;;;;;;;4.17;3.87;;;;;;;7.94;100.00;95058.66;5034083;28;20198;-81
2021/04/29 02:36:32;;;;;;;5.50;4.07;;;;;;;7.84;100.00;95037.94;5034430;28;20238;-82
2021/04/29 02:39:00;;;;;;;4.37;3.47;;;;;;;8.02;100.00;95042.91;5034242;28;20194;-82
2021/04/29 02:41:27;;;;;;;5.30;3.53;;;;;;;8.08;100.00;95065.75;5034388;28;20325;-82
2021/04/29 02:43:54;;;;;;;4.30;3.90;;;;;;;7.91;100.00;95069.44;5033870;28;20318;-81
2021/04/29 02:46:22;;;;;;;5.10;3.70;;;;;;;7.86;100.00;95039.41;5034323;28;20309;-82
2021/04/29 02:48:48;;;;;;;6.87;4.50;;;;;;;7.80;100.00;95019.16;5033809;28;20294;-82
2021/04/29 02:51:15;;;;;;;6.07;4.13;;;;;;;7.65;100.00;95007.78;5034140;28;20199;-82
2021/04/29 02:53:44;;;;;;;6.30;4.17;;;;;;;7.65;100.00;94955.47;5033589;28;20206;-82
2021/04/29 02:56:11;;;;;;;4.60;4.10;;;;;;;7.63;100.00;94967.91;5034249;28;20237;-82
2021/04/29 02:58:49;;;;;;;5.03;4.60;;;;;;;7.64;100.00;94974.78;5033666;28;20198;-82
2021/04/29 03:01:16;;;;;;;4.10;3.80;;;;;;;7.70;100.00;94949.75;5033992;28;20671;-81
2021/04/29 03:03:44;;;;;;;4.33;3.93;;;;;;;7.63;100.00;94967.91;5033293;28;20218;-82
2021/04/29 03:06:11;;;;;;;4.63;3.87;;;;;;;7.50;100.00;94905.72;5033703;28;20201;-82
2021/04/29 03:08:38;;;;;;;6.30;4.77;;;;;;;7.65;100.00;94871.78;5033520;28;20345;-81
2021/04/29 03:11:06;;;;;;;5.80;4.20;;;;;;;7.68;100.00;94798.22;5033745;28;20675;-81
2021/04/29 03:13:33;;;;;;;4.57;4.17;;;;;;;7.67;100.00;94817.53;5033251;28;20289;-83
2021/04/29 03:16:00;;;;;;;5.13;4.07;;;;;;;7.78;100.00;94866.78;5010611;28;20235;-83
2021/04/29 03:18:27;;;;;;;4.80;4.00;;;;;;;7.65;100.00;94850.06;5013415;28;20319;-81
2021/04/29 03:20:54;;;;;;;5.20;4.37;;;;;;;7.61;100.00;94818.22;5013221;28;20345;-82
2021/04/29 03:23:21;;;;;;;6.00;4.43;;;;;;;7.53;100.00;94766.00;5012001;28;20233;-80
2021/04/29 03:25:48;;;;;;;4.60;4.20;;;;;;;7.79;100.00;94744.66;5012755;28;20195;-82
2021/04/29 03:28:16;;;;;;;8.43;4.07;;;;;;;7.68;100.00;94739.88;5012311;28;20763;-81
2021/04/29 03:30:42;;;;;;;8.80;3.80;;;;;;;7.56;100.00;94726.44;5012741;28;20206;-81
2021/04/29 03:33:10;;;;;;;6.33;3.63;;;;;;;7.46;100.00;94689.28;5012333;28;20196;-81
2021/04/29 03:35:38;;;;;;;7.10;4.67;;;;;;;7.43;100.00;94624.28;5012871;28;20206;-82
2021/04/29 03:38:05;;;;;;;9.97;5.77;;;;;;;7.51;100.00;94553.59;5011704;28;20291;-82
2021/04/29 03:40:31;;;;;;;9.07;4.37;;;;;;;7.55;100.00;94506.03;5012306;28;20302;-80
2021/04/29 03:42:58;;;;;;;8.27;5.30;;;;;;;7.79;100.00;94464.81;5012015;28;20265;-82
2021/04/29 03:45:26;;;;;;;7.23;5.93;;;;;;;7.90;100.00;94524.53;5012144;28;20242;-80
2021/04/29 03:47:53;;;;;;;6.67;4.20;;;;;;;7.94;100.00;94524.97;5012024;28;20199;-82
2021/04/29 03:50:21;;;;;;;6.30;4.97;;;;;;;7.89;100.00;94491.50;5011918;28;20195;-82
2021/04/29 03:52:47;;;;;;;6.93;5.30;;;;;;;7.97;100.00;94462.63;5011792;28;20692;-83
2021/04/29 03:55:15;;;;;;;27.03;16.60;;;;;;;7.96;100.00;94505.44;5012220;28;20238;-83
2021/04/29 03:57:42;;;;;;;13.53;9.33;;;;;;;7.99;100.00;94540.91;5011835;28;20634;-83
2021/04/29 04:00:10;;;;;;;38.30;24.97;;;;;;;7.96;100.00;94520.34;5011816;28;20294;-83
2021/04/29 04:02:38;;;;;;;16.77;12.23;;;;;;;7.96;100.00;94447.09;5011417;28;21015;-84
2021/04/29 04:05:05;;;;;;;8.27;6.03;;;;;;;8.01;100.00;94347.94;5011682;28;20199;-83
2021/04/29 04:07:33;;;;;;;7.37;4.67;;;;;;;8.08;100.00;94299.09;5012471;28;20206;-83
2021/04/29 04:10:00;;;;;;;7.83;6.30;;;;;;;7.89;100.00;94412.22;5013029;28;20199;-82
2021/04/29 04:12:27;;;;;;;7.57;6.47;;;;;;;7.65;100.00;94520.59;5012493;28;20231;-83
2021/04/29 04:14:53;;;;;;;9.67;8.67;;;;;;;7.57;100.00;94504.03;5012651;28;20195;-83
2021/04/29 04:17:20;;;;;;;9.63;7.97;;;;;;;7.43;100.00;94470.88;5012376;28;20247;-83
2021/04/29 04:19:48;;;;;;;11.70;6.50;;;;;;;7.47;100.00;94383.25;5012642;28;20348;-83
2021/04/29 04:22:15;;;;;;;10.13;7.27;;;;;;;7.60;100.00;94322.47;5012330;28;20594;-83
2021/04/29 04:24:42;;;;;;;11.80;7.57;;;;;;;7.72;100.00;94283.53;5012398;28;20227;-83
2021/04/29 04:27:08;;;;;;;13.07;7.97;;;;;;;7.70;100.00;94277.69;5012317;28;20204;-83
2021/04/29 04:29:36;;;;;;;11.60;8.83;;;;;;;7.68;100.00;94233.41;5012423;28;20290;-83
2021/04/29 04:32:03;;;;;;;14.30;12.90;;;;;;;7.83;100.00;94147.03;5012319;28;20338;-83
2021/04/29 04:34:30;;;;;;;36.73;23.70;;;;;;;8.21;100.00;94094.22;5012644;28;20201;-83
2021/04/29 04:36:57;;;;;;;18.67;15.40;;;;;;;8.28;100.00;94202.38;5012255;28;20194;-83
2021/04/29 04:39:25;;;;;;;17.37;11.90;;;;;;;8.08;100.00;94220.59;5012486;28;20671;-83
2021/04/29 04:41:52;;;;;;;21.90;16.57;;;;;;;8.14;100.00;94116.97;5012186;28;20269;-83
2021/04/29 04:44:18;;;;;;;19.10;15.93;;;;;;;8.38;100.00;93998.66;5012219;28;20230;-83
2021/04/29 04:46:45;;;;;;;14.93;13.30;;;;;;;8.45;100.00;93970.72;5011883;28;20221;-82
2021/04/29 04:49:12;;;;;;;14.47;10.27;;;;;;;8.64;100.00;93955.19;5012540;28;20715;-83
2021/04/29 04:51:39;;;;;;;13.40;12.07;;;;;;;8.75;100.00;93984.19;5012168;28;20311;-83
2021/04/29 04:54:07;;;;;;;11.67;10.20;;;;;;;8.98;100.00;93972.47;5012424;28;20200;-83
2021/04/29 04:56:36;;;;;;;12.07;9.20;;;;;;;9.03;100.00;93976.06;5011943;28;20742;-82
2021/04/29 04:59:03;;;;;;;8.23;7.40;;;;;;;8.98;100.00;93967.22;5012357;28;20200;-83
2021/04/29 05:01:30;;;;;;;10.80;9.40;;;;;;;8.79;100.00;93921.72;5012798;28;20326;-83
2021/04/29 05:03:57;;;;;;;13.47;11.93;;;;;;;8.90;100.00;93860.03;5012259;28;20267;-83
2021/04/29 05:06:24;;;;;;;14.00;11.90;;;;;;;9.15;100.00;93826.09;5011892;28;20365;-83
2021/04/29 05:08:51;;;;;;;8.17;7.37;;;;;;;9.43;100.00;93857.97;5012625;28;20278;-83
2021/04/29 05:11:19;;;;;;;9.30;6.47;;;;;;;9.49;100.00;93937.59;5012145;28;20195;-83
2021/04/29 05:13:46;;;;;;;17.63;8.83;;;;;;;9.61;100.00;93977.91;5011545;28;20202;-83
2021/04/29 05:16:12;;;;;;;13.27;5.27;;;;;;;9.51;100.00;94064.88;5011963;28;20231;-83
2021/04/29 05:18:39;;;;;;;8.90;6.80;;;;;;;9.49;100.00;94097.56;5011877;28;20647;-83
2021/04/29 05:21:06;;;;;;;7.53;4.87;;;;;;;9.79;100.00;94082.16;5011958;28;20200;-82
2021/04/29 05:23:33;;;;;;;5.40;4.40;;;;;;;9.79;100.00;94094.47;5011777;28;20246;-82
2021/04/29 05:26:00;;;;;;;7.30;5.40;;;;;;;9.88;100.00;94070.41;5012189;28;20579;-83
2021/04/29 05:28:28;;;;;;;9.00;5.23;;;;;;;10.00;100.00;94067.94;5011708;28;20201;-82
2021/04/29 05:30:54;;;;;;;6.17;5.13;;;;;;;10.09;100.00;94079.81;5012811;28;20210;-83
2021/04/29 05:33:21;;;;;;;5.93;5.27;;;;;;;10.17;100.00;94034.16;5015862;28;20227;-82
2021/04/29 05:35:48;;;;;;;6.03;4.60;;;;;;;10.32;100.00;94005.00;5016025;28;20775;-83
2021/04/29 05:38:15;;;;;;;8.83;5.80;;;;;;;10.38;100.00;94039.09;5015578;28;20293;-83
2021/04/29 05:40:43;;;;;;;8.50;7.30;;;;;;;10.50;100.00;94025.31;5015331;28;20726;-82
2021/04/29 05:43:10;;;;;;;16.13;13.00;;;;;;;10.52;100.00;94020.63;5015401;28;20315;-83
2021/04/29 05:45:38;;;;;;;10.03;6.77;;;;;;;10.71;100.00;94057.28;5015532;28;20242;-83
2021/04/29 05:48:05;;;;;;;10.37;7.47;;;;;;;10.95;100.00;94075.91;5015581;28;20293;-83
2021/04/29 05:50:32;;;;;;;10.73;4.40;;;;;;;11.00;100.00;94181.19;5015449;28;20203;-83
2021/04/29 05:52:59;;;;;;;7.20;5.73;;;;;;;11.13;100.00;94211.84;5015324;28;20274;-83
2021/04/29 05:55:26;;;;;;;6.57;5.30;;;;;;;11.11;100.00;94259.38;5015274;28;20297;-83
2021/04/29 05:57:55;;;;;;;10.70;7.43;;;;;;;11.22;100.00;94247.38;5015394;28;20588;-83
2021/04/29 06:00:22;;;;;;;6.33;4.47;;;;;;;11.49;100.00;94307.72;5015143;28;20741;-83
2021/04/29 06:02:50;;;;;;;5.83;4.73;;;;;;;11.31;100.00;94363.66;5014791;28;20782;-83
2021/04/29 06:05:16;;;;;;;10.67;7.80;;;;;;;11.52;100.00;94326.50;5015245;28;20195;-82
2021/04/29 06:07:43;;;;;;;12.27;7.67;;;;;;;11.74;100.00;94378.78;5013437;28;20767;-82
2021/04/29 06:10:11;;;;;;;7.93;5.60;;;;;;;11.84;100.00;94434.44;5014220;28;20769;-83
2021/04/29 06:12:38;;;;;;;20.70;14.70;;;;;;;11.98;100.00;94451.78;5014960;28;20242;-83
2021/04/29 06:15:06;;;;;;;7.93;5.40;;;;;;;11.98;100.00;94493.91;5015624;28;20223;-83
2021/04/29 06:17:33;;;;;;;6.40;5.13;;;;;;;11.83;100.00;94501.25;5014600;28;20322;-84
2021/04/29 06:20:01;;;;;;;6.73;5.70;;;;;;;11.60;100.00;94449.94;5015202;28;20196;-84
2021/04/29 06:22:28;;;;;;;5.57;5.03;;;;;;;12.09;100.00;94451.13;5014844;28;20285;-84
2021/04/29 06:24:55;;;;;;;5.07;4.57;;;;;;;12.43;100.00;94564.97;5015000;28;20687;-83
2021/04/29 06:27:22;;;;;;;9.87;5.63;;;;;;;12.57;100.00;94655.31;5014772;28;20242;-85
2021/04/29 06:29:48;;;;;;;6.20;5.60;;;;;;;12.51;100.00;94585.84;5014930;28;20627;-84
2021/04/29 06:32:15;;;;;;;8.70;5.43;;;;;;;12.69;100.00;94658.91;5014886;28;20286;-83
2021/04/29 06:34:42;;;;;;;9.97;5.03;;;;;;;12.65;100.00;94683.28;5014910;28;20202;-84
2021/04/29 06:37:10;;;;;;;10.27;6.60;;;;;;;12.86;100.00;94601.22;5014504;28;20199;-84
2021/04/29 06:39:37;;;;;;;10.40;6.10;;;;;;;13.00;100.00;94650.22;5014403;28;20242;-84
2021/04/29 06:42:04;;;;;;;6.23;5.13;;;;;;;13.28;100.00;94696.53;5014003;28;20207;-84
2021/04/29 06:44:32;;;;;;;8.47;7.60;;;;;;;13.46;100.00;94711.63;5014162;28;20262;-85
2021/04/29 06:46:59;;;;;;;8.90;7.30;;;;;;;13.35;100.00;94730.78;5014382;28;20199;-84
2021/04/29 06:49:26;;;;;;;8.47;6.33;;;;;;;13.73;100.00;94770.31;5014469;28;20297;-84
2021/04/29 06:51:53;;;;;;;6.83;5.20;;;;;;;13.55;100.00;94851.06;5014452;28;20196;-84
2021/04/29 06:54:21;;;;;;;10.17;4.97;;;;;;;13.63;100.00;94965.34;5014335;28;20282;-84
2021/04/29 06:56:48;;;;;;;14.27;11.10;;;;;;;13.97;100.00;94964.97;5014860;28;20238;-84
2021/04/29 06:59:15;;;;;;;6.47;5.33;;;;;;;13.79;100.00;95054.66;5014348;28;20286;-84
2021/04/29 07:01:42;;;;;;;10.60;6.67;;;;;;;13.89;100.00;94957.31;5014124;28;20238;-82
2021/04/29 07:04:09;;;;;;;6.83;5.80;;;;;;;13.87;100.00;95025.38;5014011;28;20314;-85
2021/04/29 07:06:36;;;;;;;9.37;6.97;;;;;;;13.95;100.00;94977.59;5014260;28;20287;-85
2021/04/29 07:09:04;;;;;;;6.83;6.10;;;;;;;14.20;100.00;95016.47;5013969;28;20269;-85
2021/04/29 07:11:32;;;;;;;7.63;5.50;;;;;;;14.34;100.00;95062.13;5014126;28;20231;-84
2021/04/29 07:13:59;;;;;;;8.03;5.73;;;;;;;14.40;100.00;95085.91;5013871;28;20209;-85
2021/04/29 07:16:26;;;;;;;10.63;8.03;;;;;;;14.78;100.00;95093.03;5013707;28;20241;-84
2021/04/29 07:18:53;;;;;;;7.00;5.30;;;;;;;14.67;100.00;95168.59;5013898;28;20287;-84
2021/04/29 07:21:20;;;;;;;7.07;5.73;;;;;;;15.12;100.00;95122.75;5014108;28;20285;-83
2021/04/29 07:23:47;;;;;;;6.90;6.07;;;;;;;15.20;100.00;95204.50;5013983;28;20322;-83
2021/04/29 07:26:15;;;;;;;8.63;6.70;;;;;;;15.06;100.00;95213.56;5013825;28;20728;-85
2021/04/29 07:28:43;;;;;;;8.60;6.50;;;;;;;15.29;100.00;95203.25;5013766;28;20203;-84
2021/04/29 07:31:10;;;;;;;7.47;6.60;;;;;;;15.19;100.00;95187.81;5013812;28;20290;-83
2021/04/29 07:33:36;;;;;;;6.87;5.07;;;;;;;15.34;100.00;95250.25;5013840;28;20298;-83
2021/04/29 07:36:04;;;;;;;8.30;5.03;;;;;;;15.46;100.00;95228.19;5013452;28;20710;-83
2021/04/29 07:38:31;;;;;;;9.53;5.97;;;;;;;15.76;100.00;95262.03;5013604;28;20290;-83
2021/04/29 07:40:58;;;;;;;5.73;4.87;;;;;;;15.91;100.00;95338.56;5013659;28;20218;-83
2021/04/29 07:43:25;;;;;;;10.63;5.80;;;;;;;16.10;100.00;95365.94;5013294;28;20747;-83
2021/04/29 07:45:53;;;;;;;6.70;6.00;;;;;;;15.98;100.00;95396.81;5013518;28;20253;-83
2021/04/29 07:48:20;;;;;;;14.60;11.27;;;;;;;16.11;100.00;95352.50;5012943;28;20199;-83
2021/04/29 07:50:46;;;;;;;18.30;15.03;;;;;;;16.33;100.00;95360.06;5013601;28;20200;-84
2021/04/29 07:53:13;;;;;;;15.37;11.33;;;;;;;16.57;100.00;95422.91;5013175;28;20706;-83
2021/04/29 07:55:40;;;;;;;18.23;15.57;;;;;;;17.01;100.00;95428.28;5012281;28;20246;-83
2021/04/29 07:58:07;;;;;;;8.23;6.00;;;;;;;16.53;100.00;95481.91;5012902;28;20192;-83
2021/04/29 08:00:34;;;;;;;6.00;5.40;;;;;;;16.52;100.00;95477.63;5013219;28;20292;-85
2021/04/29 08:03:02;;;;;;;6.13;5.53;;;;;;;16.84;100.00;95499.69;5013016;28;20684;-83
2021/04/29 08:05:29;;;;;;;6.70;6.07;;;;;;;17.20;100.00;95540.63;5013274;28;20234;-84
2021/04/29 08:07:57;;;;;;;10.40;6.33;;;;;;;17.57;100.00;95517.59;5012785;28;20212;-83
2021/04/29 08:10:24;;;;;;;8.17;5.57;;;;;;;17.11;100.00;95551.53;5013033;28;20264;-84
2021/04/29 08:12:51;;;;;;;7.80;6.03;;;;;;;17.29;100.00;95563.22;5012638;28;20234;-83
2021/04/29 08:15:18;;;;;;;7.97;5.47;;;;;;;17.71;100.00;95612.09;5012919;28;20241;-82
2021/04/29 08:17:45;;;;;;;6.90;6.23;;;;;;;17.23;100.00;95548.16;5012617;28;20229;-83
2021/04/29 08:20:15;;;;;;;7.47;5.70;;;;;;;17.41;100.00;95550.03;5012801;28;20288;-84
2021/04/29 08:22:42;;;;;;;6.57;5.03;;;;;;;17.34;100.00;95553.56;5012514;28;20664;-83
2021/04/29 08:25:10;;;;;;;9.53;6.90;;;;;;;17.86;100.00;95558.59;5012815;28;20709;-83
2021/04/29 08:27:37;;;;;;;5.83;5.00;;;;;;;17.39;100.00;95653.03;5012602;28;20201;-83
2021/04/29 08:30:04;;;;;;;7.20;6.43;;;;;;;17.30;100.00;95613.47;5013324;28;20552;-83
2021/04/29 08:32:31;;;;;;;7.87;6.13;;;;;;;17.92;100.00;95570.22;5012599;28;20758;-84
2021/04/29 08:34:58;;;;;;;7.67;6.13;;;;;;;17.69;100.00;95586.75;5013102;28;20610;-83
2021/04/29 08:37:26;;;;;;;7.37;5.30;;;;;;;18.19;100.00;95659.31;5012581;28;20209;-84
2021/04/29 08:39:53;;;;;;;5.37;4.87;;;;;;;18.61;100.00;95704.69;5013025;28;20217;-83
2021/04/29 08:42:19;;;;;;;5.53;5.03;;;;;;;18.54;100.00;95698.63;5012370;28;20293;-84
2021/04/29 08:44:46;;;;;;;7.37;6.67;;;;;;;18.93;100.00;95660.06;5012445;28;20310;-83
2021/04/29 08:47:13;;;;;;;8.17;5.27;;;;;;;18.80;100.00;95745.44;5012228;28;20211;-84
2021/04/29 08:49:40;;;;;;;8.80;6.77;;;;;;;19.03;100.00;95707.47;5012715;28;20203;-83
2021/04/29 08:52:08;;;;;;;7.17;5.23;;;;;;;19.47;100.00;95692.09;5012229;28;20286;-83
2021/04/29 08:54:38;;;;;;;9.13;5.00;;;;;;;19.21;100.00;95776.69;5012282;28;20282;-84
2021/04/29 08:57:06;;;;;;;6.60;5.87;;;;;;;19.65;100.00;95710.69;5012350;28;20692;-84
2021/04/29 08:59:32;;;;;;;6.30;4.90;;;;;;;19.09;100.00;95743.88;5012425;28;20199;-84
2021/04/29 09:02:00;;;;;;;8.57;5.60;;;;;;;19.53;100.00;95688.50;5012599;28;20278;-85
2021/04/29 09:04:28;;;;;;;8.20;5.40;;;;;;;19.74;100.00;95755.69;5012133;28;20219;-84
2021/04/29 09:06:56;;;;;;;5.37;4.87;;;;;;;19.82;100.00;95758.03;5014909;28;20715;-83
2021/04/29 09:09:22;;;;;;;6.40;5.10;;;;;;;19.74;100.00;95758.34;5016569;28;20208;-84
2021/04/29 09:11:52;;;;;;;7.63;5.57;;;;;;;19.93;100.00;95758.06;5016176;28;20203;-84
2021/04/29 09:14:30;;;;;;;9.43;5.53;;;;;;;19.46;100.00;95797.06;5016260;28;20199;-85
2021/04/29 09:16:57;;;;;;;6.87;5.03;;;;;;;19.59;100.00;95780.88;5015960;28;20275;-84
2021/04/29 09:19:26;;;;;;;6.20;4.83;;;;;;;19.23;100.00;95773.81;5016307;28;20579;-84
2021/04/29 09:21:54;;;;;;;5.50;5.00;;;;;;;19.14;100.00;95740.50;5015922;28;20203;-85
2021/04/29 09:24:33;;;;;;;6.43;4.93;;;;;;;19.34;100.00;95708.28;5016271;28;20269;-84
2021/04/29 09:27:12;;;;;;;15.83;12.17;;;;;;;20.30;100.00;95711.69;5016489;28;20239;-85
2021/04/29 09:29:53;;;;;;;6.07;5.30;;;;;;;20.24;100.00;95824.69;5016225;28;20274;-84
2021/04/29 09:32:29;;;;;;;7.67;6.13;;;;;;;20.32;100.00;95809.13;5015840;28;20727;-84
2021/04/29 09:34:56;;;;;;;6.80;6.07;;;;;;;19.82;100.00;95811.38;5016553;28;20249;-85
2021/04/29 09:37:31;;;;;;;8.87;5.93;;;;;;;19.23;100.00;95765.81;5016119;28;20290;-85
2021/04/29 09:39:58;;;;;;;11.00;7.67;;;;;;;19.63;100.00;95709.31;5015853;28;20709;-84
2021/04/29 09:42:34;;;;;;;9.43;7.43;;;;;;;20.03;100.00;95738.00;5015592;28;20294;-85
2021/04/29 09:45:03;;;;;;;10.97;7.77;;;;;;;20.24;100.00;95712.63;5015776;28;20195;-84
2021/04/29 09:47:30;;;;;;;11.70;7.80;;;;;;;20.71;100.00;95780.13;5015626;28;20695;-85
2021/04/29 09:49:57;;;;;;;5.30;4.80;;;;;;;20.05;100.00;95846.09;5015697;28;20640;-84
2021/04/29 09:52:26;;;;;;;5.50;5.00;;;;;;;19.57;100.00;95787.47;5015233;28;20264;-84
2021/04/29 09:54:54;;;;;;;6.57;5.30;;;;;;;19.86;100.00;95751.19;5015476;28;20290;-84
2021/04/29 09:57:25;;;;;;;9.20;6.60;;;;;;;20.08;100.00;95789.59;5015474;28;20239;-85
2021/04/29 09:59:57;;;;;;;6.47;5.30;;;;;;;20.40;100.00;95791.97;5015781;28;20190;-84
2021/04/29 10:02:24;;;;;;;6.13;5.60;;;;;;;20.45;100.00;95799.28;5015380;28;20196;-85
2021/04/29 10:04:53;;;;;;;6.63;5.83;;;;;;;20.62;100.00;95809.06;5015266;28;20644;-85
2021/04/29 10:07:21;;;;;;;6.73;5.27;;;;;;;20.71;100.00;95846.09;5015243;28;20684;-85
2021/04/29 10:09:49;;;;;;;10.73;6.20;;;;;;;20.94;100.00;95784.63;5015264;28;20273;-84
2021/04/29 10:12:17;;;;;;;8.17;5.30;;;;;;;20.15;100.00;95841.00;5015087;28;20274;-85
2021/04/29 10:14:46;;;;;;;8.60;6.07;;;;;;;20.42;100.00;95808.56;5015079;28;20291;-84
2021/04/29 10:17:16;;;;;;;7.27;5.47;;;;;;;20.29;100.00;95832.78;5013936;28;20722;-85
2021/04/29 10:19:45;;;;;;;6.20;5.60;;;;;;;20.30;100.00;95821.91;5014786;28;20748;-85
2021/04/29 10:22:12;;;;;;;7.97;5.60;;;;;;;20.50;100.00;95829.59;5014455;28;20200;-85
2021/04/29 10:24:42;;;;;;;6.67;6.07;;;;;;;20.38;100.00;95802.06;5014804;28;20314;-84
2021/04/29 10:27:10;;;;;;;7.70;5.67;;;;;;;20.74;100.00;95833.06;5014640;28;20676;-84
2021/04/29 10:29:37;;;;;;;6.40;5.83;;;;;;;20.92;100.00;95794.75;5015103;28;20196;-84
2021/04/29 10:32:09;;;;;;;6.20;5.60;;;;;;;20.68;100.00;95828.69;5014719;28;20822;-84
2021/04/29 10:34:43;;;;;;;11.83;6.53;;;;;;;20.47;100.00;95839.88;5014840;28;20275;-84
2021/04/29 10:37:18;;;;;;;9.50;6.30;;;;;;;21.07;100.00;95812.97;5014570;28;20187;-84
2021/04/29 10:39:52;;;;;;;7.13;5.80;;;;;;;21.12;100.00;95861.97;5014807;28;20195;-84
2021/04/29 10:42:20;;;;;;;7.13;6.17;;;;;;;20.89;100.00;95876.16;5014880;28;20553;-84
2021/04/29 10:44:48;;;;;;;6.43;5.83;;;;;;;20.43;100.00;95887.59;5014474;28;20314;-83
2021/04/29 10:47:23;;;;;;;8.90;6.47;;;;;;;20.11;100.00;95847.03;5014559;28;20290;-84
2021/04/29 10:49:52;;;;;;;6.07;5.53;;;;;;;20.32;100.00;95811.81;5014714;28;20195;-84
2021/04/29 10:52:19;;;;;;;7.77;6.33;;;;;;;20.27;100.00;95858.91;5014453;28;20203;-84
2021/04/29 10:54:50;;;;;;;8.87;6.37;;;;;;;20.85;100.00;95850.97;5014314;28;20192;-84
2021/04/29 10:57:18;;;;;;;6.50;5.90;;;;;;;20.89;100.00;95843.31;5014209;28;20301;-84
2021/04/29 10:59:48;;;;;;;11.47;6.87;;;;;;;20.98;100.00;95863.25;5014716;28;20197;-85
2021/04/29 11:02:23;;;;;;;9.57;6.70;;;;;;;20.54;100.00;95862.81;5014528;28;20298;-85
2021/04/29 11:04:52;;;;;;;8.70;6.30;;;;;;;20.57;100.00;95843.63;5014364;28;20313;-84
2021/04/29 11:07:20;;;;;;;9.80;7.30;;;;;;;21.20;100.00;95828.75;5013986;28;20241;-85
2021/04/29 11:10:02;;;;;;;8.93;7.07;;;;;;;21.23;100.00;95864.84;5014392;28;20677;-84
2021/04/29 11:12:43;;;;;;;19.10;7.00;;;;;;;20.85;100.00;95890.19;5014008;28;20734;-84
2021/04/29 11:15:28;;;;;;;7.63;6.87;;;;;;;20.86;100.00;95862.47;5013967;28;20290;-84
2021/04/29 11:18:06;;;;;;;7.27;6.57;;;;;;;21.13;100.00;95887.66;5013818;28;20191;-84
2021/04/29 11:20:48;;;;;;;7.47;6.23;;;;;;;21.07;100.00;95883.25;5014457;28;20637;-84
2021/04/29 11:23:17;;;;;;;7.03;6.33;;;;;;;21.14;100.00;95913.31;5013705;28;20234;-84
2021/04/29 11:25:44;;;;;;;8.60;6.43;;;;;;;20.66;100.00;95871.63;5013696;28;20234;-84
2021/04/29 11:28:11;;;;;;;6.60;6.10;;;;;;;20.49;100.00;95862.66;5013599;28;20290;-84
2021/04/29 11:30:39;;;;;;;7.90;6.30;;;;;;;20.70;100.00;95871.16;5013498;28;20246;-84